Time;durP1;ratioP1;P1;durP2;ratioP2;P2;SDS_P1;SDS_P2;PMS_P1;PMS_P2;Temp;Humidity;BMP_temperature;BMP_pressure;BME280_temperature;BME280_humidity;BME280_pressure;Samples;Min_cycle;Max_cycle;Signal;HPM_P1;HPM_P2
2022/01/08 00:00:33;;;;;;;15.77;12.87;;;4.50;1.00;4.90;99864.00;;;;5023192;28;20481;-80
2022/01/08 00:03:01;;;;;;;15.37;13.10;;;4.50;1.00;5.00;99890.00;;;;5024040;28;20460;-80
2022/01/08 00:05:30;;;;;;;14.60;13.20;;;4.50;1.00;5.00;99880.00;;;;5019745;28;20452;-80
2022/01/08 00:08:00;;;;;;;15.37;13.63;;;4.50;1.00;4.90;67344.00;;;;5022259;28;20468;-80
2022/01/08 00:10:28;;;;;;;14.10;12.67;;;4.50;1.00;52.70;158752.00;;;;5021367;28;20484;-80
2022/01/08 00:13:01;;;;;;;16.33;13.00;;;4.50;1.00;4.80;67333.00;;;;5022845;28;20462;-80
2022/01/08 00:15:29;;;;;;;14.00;12.50;;;4.40;1.00;4.90;67330.00;;;;5023449;28;20512;-80
2022/01/08 00:17:57;;;;;;;14.50;13.03;;;4.40;1.00;4.90;67336.00;;;;5020591;28;20457;-80
2022/01/08 00:20:26;;;;;;;12.47;11.23;;;4.40;1.00;217.30;158742.00;;;;5020507;28;20497;-80
2022/01/08 00:22:56;;;;;;;14.20;12.30;;;4.40;1.00;4.80;67317.00;;;;5019600;28;21075;-80
2022/01/08 00:25:26;;;;;;;13.70;12.30;;;4.40;1.00;4.70;99856.00;;;;5021645;28;20453;-80
2022/01/08 00:27:54;;;;;;;12.57;11.27;;;4.30;1.00;4.70;99834.00;;;;5018869;28;20965;-80
2022/01/08 00:30:23;;;;;;;13.70;12.30;;;4.20;1.00;4.70;99836.00;;;;5013198;28;20477;-80
2022/01/08 00:32:51;;;;;;;15.03;12.33;;;4.40;1.00;4.70;99832.00;;;;5013751;28;20468;-78
2022/01/08 00:35:20;;;;;;;13.27;11.87;;;4.20;1.00;4.70;99824.00;;;;5037669;28;20473;-79
2022/01/08 00:37:48;;;;;;;17.63;12.47;;;4.20;1.00;4.60;67272.00;;;;5010738;28;20469;-81
2022/01/08 00:40:16;;;;;;;11.80;10.60;;;4.20;1.00;4.60;99819.00;;;;5014692;28;21718;-80
2022/01/08 00:42:46;;;;;;;12.53;11.33;;;4.10;1.00;4.60;67278.00;;;;5010492;28;20461;-79
2022/01/08 00:45:14;;;;;;;12.67;11.20;;;4.20;1.00;4.60;99805.00;;;;5014106;28;20464;-79
2022/01/08 00:47:43;;;;;;;12.93;11.57;;;4.10;1.00;4.70;99810.00;;;;5028031;28;20824;-78
2022/01/08 00:50:12;;;;;;;12.47;11.17;;;4.10;1.00;217.30;158687.00;;;;5011664;28;20524;-79
2022/01/08 00:52:41;;;;;;;11.30;9.60;;;4.20;1.00;4.80;99812.00;;;;5014874;28;20456;-80
2022/01/08 00:55:12;;;;;;;12.30;11.00;;;4.30;1.00;4.80;99783.00;;;;5012813;28;20462;-80
2022/01/08 00:57:40;;;;;;;14.60;12.30;;;4.20;1.00;4.90;99792.00;;;;5013446;28;21144;-79
2022/01/08 01:00:12;;;;;;;12.73;11.43;;;4.30;1.00;4.90;99796.00;;;;5012761;28;20472;-80
2022/01/08 01:02:41;;;;;;;13.43;12.07;;;4.40;1.00;5.00;99780.00;;;;5012531;28;20450;-78
2022/01/08 01:05:11;;;;;;;14.30;12.00;;;4.40;1.00;5.00;67373.00;;;;5009356;28;20460;-80
2022/01/08 01:07:39;;;;;;;14.07;12.63;;;4.40;1.00;5.00;99784.00;;;;5012351;28;20465;-79
2022/01/08 01:10:11;;;;;;;16.47;12.63;;;4.40;1.00;52.70;158858.00;;;;5014916;28;20477;-81
2022/01/08 01:12:40;;;;;;;14.60;12.33;;;4.40;1.00;5.10;67382.00;;;;5011782;28;20473;-81
2022/01/08 01:15:14;;;;;;;13.27;10.90;;;4.30;1.00;5.10;99764.00;;;;5039925;28;21281;-79
2022/01/08 01:17:43;;;;;;;12.80;11.50;;;4.30;1.00;5.00;99763.00;;;;5016451;28;20446;-80
2022/01/08 01:20:15;;;;;;;14.83;12.83;;;4.30;1.00;5.00;99767.00;;;;5018660;28;20838;-79
2022/01/08 01:22:52;;;;;;;15.80;13.20;;;4.30;1.00;52.70;158806.00;;;;5024220;28;20453;-79
2022/01/08 01:25:25;;;;;;;16.43;14.83;;;4.20;1.00;4.90;99765.00;;;;5027688;28;20557;-80
2022/01/08 01:28:01;;;;;;;16.50;14.80;;;4.20;1.00;4.90;99767.00;;;;5029158;28;20460;-79
2022/01/08 01:41:50;;;;;;;19.13;14.67;;;3.90;1.00;4.40;99743.00;;;;5018874;28;20448;-79
2022/01/08 01:47:09;;;;;;;15.03;13.30;;;3.70;1.00;4.50;99747.00;;;;5016695;28;21017;-80
2022/01/08 01:49:41;;;;;;;20.17;14.40;;;3.60;1.00;4.40;99731.00;;;;5018555;28;20473;-77
2022/01/08 01:52:13;;;;;;;20.40;14.93;;;3.70;1.00;4.10;99744.00;;;;5023487;28;20474;-79
2022/01/08 01:54:42;;;;;;;22.53;14.90;;;3.60;1.00;3.90;67115.00;;;;5022405;28;20456;-78
2022/01/08 01:57:16;;;;;;;20.43;16.73;;;3.30;1.00;3.90;99748.00;;;;5019519;28;20446;-77
2022/01/08 01:59:44;;;;;;;19.27;14.07;;;3.20;1.00;3.80;99750.00;;;;5018426;28;20476;-78
2022/01/08 02:02:14;;;;;;;20.20;15.03;;;3.00;1.00;3.70;99742.00;;;;5015205;28;20461;-77
2022/01/08 02:04:42;;;;;;;21.90;15.73;;;2.90;1.00;3.40;67016.00;;;;5016868;28;20460;-78
2022/01/08 02:07:11;;;;;;;22.90;15.17;;;2.80;1.00;3.20;99747.00;;;;5017350;28;20460;-76
2022/01/08 02:09:40;;;;;;;26.10;15.90;;;2.60;1.00;3.10;99728.00;;;;5017176;28;20487;-78
2022/01/08 02:12:15;;;;;;;22.73;15.07;;;2.40;1.00;3.10;99725.00;;;;5018106;28;20473;-79
2022/01/08 02:14:45;;;;;;;20.10;15.03;;;2.30;1.00;3.10;99720.00;;;;5019752;28;20461;-78
2022/01/08 02:17:14;;;;;;;19.90;14.90;;;2.30;1.00;3.10;99737.00;;;;5017640;28;20446;-78
2022/01/08 02:19:43;;;;;;;20.20;14.50;;;2.30;1.00;3.20;99746.00;;;;5018081;28;20476;-78
2022/01/08 02:22:16;;;;;;;31.23;17.33;;;2.30;1.00;3.20;99724.00;;;;5017371;28;20540;-78
2022/01/08 02:24:46;;;;;;;32.50;16.50;;;2.30;1.00;3.10;99725.00;;;;5017993;28;20456;-78
2022/01/08 02:27:15;;;;;;;21.27;15.20;;;2.30;1.00;3.00;99729.00;;;;5018396;28;20825;-78
2022/01/08 02:29:44;;;;;;;26.73;15.67;;;2.30;1.00;2.90;99731.00;;;;5016540;28;20489;-77
2022/01/08 02:32:15;;;;;;;24.43;14.13;;;2.20;1.00;2.90;99732.00;;;;5016308;28;20500;-77
2022/01/08 02:34:46;;;;;;;21.77;14.70;;;2.30;1.00;2.90;99722.00;;;;5018437;28;20532;-78
2022/01/08 02:37:18;;;;;;;26.43;15.33;;;2.20;1.00;2.90;99707.00;;;;5032648;28;20488;-78
2022/01/08 02:39:48;;;;;;;18.10;13.67;;;2.20;1.00;2.70;99692.00;;;;5020871;28;20482;-77
2022/01/08 02:42:19;;;;;;;21.37;14.57;;;2.20;1.00;2.60;99712.00;;;;5017072;28;20536;-78
2022/01/08 02:44:49;;;;;;;21.30;12.03;;;2.10;1.00;2.50;99716.00;;;;5020024;28;20445;-77
2022/01/08 02:47:22;;;;;;;35.93;13.87;;;2.00;1.00;2.40;66784.00;;;;5018302;28;20480;-77
2022/01/08 02:49:53;;;;;;;22.63;11.53;;;2.00;1.00;2.20;99699.00;;;;5019253;28;20475;-77
2022/01/08 02:52:24;;;;;;;22.90;11.07;;;1.90;1.00;2.10;66699.00;;;;5017549;28;20468;-77
2022/01/08 02:54:52;;;;;;;14.57;10.00;;;1.80;1.00;2.00;66694.00;;;;5018576;28;20823;-77
2022/01/08 02:57:20;;;;;;;25.60;13.10;;;1.60;1.00;2.00;99702.00;;;;5018146;28;20457;-78
2022/01/08 02:59:49;;;;;;;14.87;8.20;;;1.60;1.00;2.00;99694.00;;;;5024561;28;20488;-78
2022/01/08 03:02:17;;;;;;;12.40;7.90;;;1.60;1.00;1.90;99701.00;;;;5019750;28;20817;-78
2022/01/08 03:04:50;;;;;;;11.13;7.03;;;1.60;1.00;1.80;99705.00;;;;5033842;28;20446;-78
2022/01/08 03:07:18;;;;;;;11.07;5.70;;;1.60;1.00;1.80;99675.00;;;;5040078;28;20584;-78
2022/01/08 03:09:56;;;;;;;7.27;5.30;;;1.60;1.00;1.60;99693.00;;;;5045054;28;20476;-79
2022/01/08 03:12:27;;;;;;;6.53;4.63;;;1.40;1.00;1.70;66619.00;;;;5030429;28;20476;-79
2022/01/08 03:14:56;;;;;;;8.10;5.07;;;1.40;1.00;1.70;99723.00;;;;5022825;28;20457;-79
2022/01/08 03:17:24;;;;;;;6.37;5.40;;;1.40;1.00;1.70;66622.00;;;;5022074;28;20525;-78
2022/01/08 03:20:00;;;;;;;8.70;4.93;;;1.40;1.00;1.70;66632.00;;;;5020472;28;20866;-79
2022/01/08 03:22:29;;;;;;;7.70;4.37;;;1.40;1.00;217.30;157424.00;;;;5021677;28;20463;-79
2022/01/08 03:24:59;;;;;;;9.70;4.87;;;1.40;1.00;1.80;66656.00;;;;5019907;28;20455;-80
2022/01/08 03:27:27;;;;;;;12.00;4.20;;;1.50;1.00;1.90;99696.00;;;;5041812;28;20452;-79
2022/01/08 03:29:57;;;;;;;27.90;5.50;;;1.50;1.00;2.00;99707.00;;;;5017348;28;20536;-79
2022/01/08 03:32:26;;;;;;;22.50;5.67;;;1.50;1.00;1.90;99662.00;;;;5018250;28;20479;-79
2022/01/08 03:34:54;;;;;;;21.13;5.83;;;1.60;1.00;2.10;99658.00;;;;5017926;28;20458;-79
2022/01/08 03:37:22;;;;;;;15.10;5.00;;;1.60;1.00;2.10;99652.00;;;;5018891;28;20445;-78
2022/01/08 03:39:51;;;;;;;8.73;4.17;;;1.60;1.00;2.10;66726.00;;;;5027873;28;20475;-79
2022/01/08 03:42:20;;;;;;;4.00;3.27;;;1.60;1.00;2.20;66736.00;;;;5030254;28;20829;-79
2022/01/08 03:44:48;;;;;;;19.50;5.20;;;1.70;1.00;2.30;66751.00;;;;5030612;28;20445;-79
2022/01/08 03:47:30;;;;;;;8.37;4.23;;;1.70;1.00;2.30;66759.00;;;;5030132;28;20446;-79
2022/01/08 03:50:00;;;;;;;4.47;3.43;;;2.00;1.00;2.40;99621.00;;;;5029849;28;20483;-79
2022/01/08 03:52:34;;;;;;;4.00;3.33;;;1.80;1.00;2.40;99684.00;;;;5029502;28;20543;-79
2022/01/08 03:55:03;;;;;;;5.63;2.50;;;1.80;1.00;2.40;99656.00;;;;5026475;28;20462;-79
2022/01/08 03:57:33;;;;;;;3.70;2.70;;;1.80;1.00;2.30;99661.00;;;;5022159;28;20491;-80
2022/01/08 04:00:01;;;;;;;3.67;2.40;;;1.80;1.00;2.20;99679.00;;;;5022938;28;20499;-78
2022/01/08 04:02:39;;;;;;;3.30;2.67;;;1.80;1.00;2.10;99654.00;;;;5022514;28;20993;-79
2022/01/08 04:05:09;;;;;;;2.87;2.07;;;1.80;1.00;2.10;66710.00;;;;5021945;28;20533;-79
2022/01/08 04:07:37;;;;;;;2.43;2.07;;;1.70;1.00;2.20;99637.00;;;;5022136;28;20998;-79
2022/01/08 04:10:07;;;;;;;4.47;1.63;;;1.70;1.00;2.20;99645.00;;;;5025576;28;20500;-78
2022/01/08 04:12:41;;;;;;;3.27;1.70;;;1.70;1.00;2.10;99628.00;;;;5023774;28;20480;-79
2022/01/08 04:15:31;;;;;;;7.03;2.03;;;1.70;1.00;2.00;99636.00;;;;5031983;28;20448;-78
2022/01/08 04:17:58;;;;;;;3.20;1.80;;;1.70;1.00;2.00;99640.00;;;;5032778;28;20469;-78
2022/01/08 04:20:27;;;;;;;6.30;2.07;;;1.70;1.00;1.90;99683.00;;;;5022746;28;21020;-79
2022/01/08 04:22:55;;;;;;;3.87;2.30;;;1.60;1.00;1.90;66681.00;;;;5020402;28;20465;-78
2022/01/08 04:25:25;;;;;;;5.40;1.83;;;1.60;1.00;1.90;66675.00;;;;5019363;28;20857;-79
2022/01/08 04:27:54;;;;;;;5.00;1.83;;;1.60;1.00;2.00;66683.00;;;;5019353;28;20547;-79
2022/01/08 04:30:23;;;;;;;4.80;1.63;;;1.70;1.00;1.90;66681.00;;;;5035932;28;20464;-79
2022/01/08 04:32:51;;;;;;;4.70;1.93;;;1.60;1.00;217.30;157483.00;;;;5021142;28;20995;-78
2022/01/08 04:35:19;;;;;;;2.43;1.87;;;1.60;1.00;1.90;66674.00;;;;5019249;28;20465;-78
2022/01/08 04:37:48;;;;;;;3.10;1.80;;;1.60;1.00;2.00;99762.00;;;;5022967;28;20841;-78
2022/01/08 04:40:16;;;;;;;3.93;1.93;;;1.60;1.00;2.00;99758.00;;;;5021463;28;20853;-78
2022/01/08 04:42:44;;;;;;;4.60;2.13;;;1.80;1.00;2.10;66718.00;;;;5020606;28;20461;-78
2022/01/08 04:45:14;;;;;;;3.80;2.00;;;1.70;1.00;2.10;99783.00;;;;5017470;28;20446;-78
2022/01/08 04:47:44;;;;;;;3.40;1.90;;;1.70;1.00;2.20;99772.00;;;;5026234;28;20920;-78
2022/01/08 04:50:12;;;;;;;4.00;1.90;;;1.80;1.00;2.20;99780.00;;;;5020990;28;20538;-79
2022/01/08 04:52:41;;;;;;;3.00;1.80;;;1.80;1.00;2.20;66750.00;;;;5022306;28;20499;-79
2022/01/08 04:55:10;;;;;;;3.30;2.07;;;1.80;1.00;2.30;99809.00;;;;5025485;28;20472;-79
2022/01/08 04:57:39;;;;;;;3.00;1.80;;;1.80;1.00;2.30;66759.00;;;;5024963;28;20461;-78
2022/01/08 05:00:09;;;;;;;2.30;1.87;;;1.80;1.00;2.30;99792.00;;;;5024996;28;20466;-78
2022/01/08 05:02:38;;;;;;;3.10;1.90;;;1.80;1.00;2.30;99801.00;;;;5050319;28;20445;-79
2022/01/08 05:05:08;;;;;;;3.30;2.03;;;1.80;1.00;2.40;99750.00;;;;5043137;28;20445;-78
2022/01/08 05:07:37;;;;;;;2.93;2.10;;;1.80;1.00;217.30;157670.00;;;;5044277;28;20514;-79
2022/01/08 05:10:06;;;;;;;5.80;2.50;;;1.80;1.00;2.40;99767.00;;;;5032139;28;20475;-79
2022/01/08 05:12:35;;;;;;;4.63;3.03;;;1.90;1.00;2.40;99760.00;;;;5029358;28;20505;-79
2022/01/08 05:15:04;;;;;;;3.67;2.23;;;1.90;1.00;2.40;99774.00;;;;5035022;28;20454;-78
2022/01/08 05:17:35;;;;;;;5.03;3.63;;;1.80;1.00;217.30;157705.00;;;;5032877;28;20476;-78
2022/01/08 05:20:10;;;;;;;3.40;2.67;;;1.80;1.00;2.40;99843.00;;;;5020526;28;20489;-78
2022/01/08 05:22:51;;;;;;;5.13;3.43;;;1.80;1.00;2.40;99790.00;;;;5020889;28;20468;-79
2022/01/08 05:25:22;;;;;;;8.00;4.97;;;1.80;1.00;2.40;99792.00;;;;5033773;28;20452;-78
2022/01/08 05:27:51;;;;;;;6.83;5.07;;;1.80;1.00;2.40;66797.00;;;;5020540;28;20453;-78
2022/01/08 05:30:24;;;;;;;6.40;4.90;;;1.80;1.00;2.40;99872.00;;;;5036742;28;20480;-78
2022/01/08 05:32:53;;;;;;;7.00;5.50;;;1.90;1.00;2.50;99876.00;;;;5019284;28;20478;-78
2022/01/08 05:35:23;;;;;;;8.53;4.87;;;1.90;1.00;217.30;157767.00;;;;5019351;28;20454;-78
2022/01/08 05:37:53;;;;;;;5.50;4.23;;;1.90;1.00;2.50;99890.00;;;;5027943;28;20662;-78
2022/01/08 05:40:22;;;;;;;5.30;3.37;;;2.00;1.00;2.60;66834.00;;;;5028104;28;20470;-78
2022/01/08 05:42:51;;;;;;;7.27;4.47;;;2.00;1.00;2.70;99898.00;;;;5032437;28;20452;-78
2022/01/08 05:45:19;;;;;;;4.77;3.50;;;2.10;1.00;2.70;66847.00;;;;5031490;28;20448;-79
2022/01/08 05:47:47;;;;;;;4.57;3.50;;;2.10;1.00;2.80;99910.00;;;;5028145;28;20923;-78
2022/01/08 05:50:16;;;;;;;5.33;3.30;;;2.10;1.00;2.80;99888.00;;;;5028660;28;20827;-79
2022/01/08 05:52:45;;;;;;;4.80;3.20;;;2.20;1.00;2.90;66903.00;;;;5031857;28;20877;-78
2022/01/08 05:55:14;;;;;;;4.10;3.67;;;2.20;1.00;3.00;99917.00;;;;5024197;28;20972;-78
2022/01/08 05:57:42;;;;;;;5.00;3.57;;;2.40;1.00;3.10;99853.00;;;;5025268;28;20446;-77
2022/01/08 06:00:12;;;;;;;7.17;3.67;;;2.60;1.00;3.20;99853.00;;;;5021482;28;20496;-78
2022/01/08 06:02:40;;;;;;;4.63;3.43;;;2.60;1.00;3.20;99856.00;;;;5019401;28;20820;-77
2022/01/08 06:05:10;;;;;;;5.30;3.50;;;2.60;1.00;3.30;99855.00;;;;5022311;28;20471;-78
2022/01/08 06:07:38;;;;;;;4.43;3.50;;;2.60;1.00;3.30;99877.00;;;;5018765;28;20832;-78
2022/01/08 06:10:09;;;;;;;4.10;3.10;;;2.70;1.00;3.40;99856.00;;;;5019423;28;20488;-77
2022/01/08 06:12:38;;;;;;;4.13;3.47;;;2.80;1.00;3.30;99851.00;;;;5015302;28;20441;-78
2022/01/08 06:15:07;;;;;;;6.37;3.70;;;2.80;1.00;3.30;99904.00;;;;5015846;28;20441;-78
2022/01/08 06:17:35;;;;;;;4.60;3.50;;;2.80;1.00;3.40;99903.00;;;;5016231;28;20454;-79
2022/01/08 06:20:05;;;;;;;5.43;4.33;;;2.80;1.00;3.40;99925.00;;;;5016782;28;20492;-78
2022/01/08 06:22:34;;;;;;;4.70;3.80;;;2.80;1.00;217.30;158132.00;;;;5017306;28;20465;-78
2022/01/08 06:25:03;;;;;;;4.67;3.20;;;2.80;1.00;3.40;99953.00;;;;5015505;28;20630;-78
2022/01/08 06:27:32;;;;;;;3.90;3.07;;;2.80;1.00;3.40;99924.00;;;;5016819;28;20458;-78
2022/01/08 06:30:03;;;;;;;6.07;3.20;;;2.80;1.00;3.40;66998.00;;;;5020316;28;20496;-78
2022/01/08 06:32:31;;;;;;;4.27;2.93;;;2.70;1.00;3.40;66990.00;;;;5017560;28;20445;-79
2022/01/08 06:35:01;;;;;;;2.73;1.90;;;2.70;1.00;3.20;99982.00;;;;5018009;28;20486;-79
2022/01/08 06:37:29;;;;;;;3.77;2.20;;;2.60;1.00;3.30;99985.00;;;;5017613;28;20457;-79
2022/01/08 06:39:57;;;;;;;3.97;3.00;;;2.60;1.00;3.20;99983.00;;;;5017884;28;20476;-79
2022/01/08 06:42:25;;;;;;;4.40;3.27;;;2.60;1.00;3.20;99992.00;;;;5019099;28;20445;-79
2022/01/08 06:44:55;;;;;;;5.50;3.90;;;2.60;1.00;3.20;99992.00;;;;5016846;28;20492;-79
2022/01/08 06:47:23;;;;;;;4.10;2.80;;;2.60;1.00;3.10;66947.00;;;;5018872;28;20462;-79
2022/01/08 06:49:52;;;;;;;5.43;4.13;;;2.50;1.00;3.00;100000.00;;;;5022432;28;21359;-79
2022/01/08 06:52:20;;;;;;;10.27;4.77;;;2.50;1.00;3.00;66907.00;;;;5019157;28;20454;-79
2022/01/08 06:54:48;;;;;;;11.80;4.77;;;2.40;1.00;2.90;99996.00;;;;5022890;28;20475;-79
2022/01/08 06:57:16;;;;;;;6.57;4.30;;;2.30;1.00;217.30;157902.00;;;;5022121;28;20445;-79
2022/01/08 06:59:44;;;;;;;11.20;5.17;;;2.30;1.00;2.80;100024.00;;;;5020588;28;20852;-78
2022/01/08 07:02:14;;;;;;;6.40;4.70;;;2.20;1.00;2.80;100033.00;;;;5019143;28;20472;-79
2022/01/08 07:04:43;;;;;;;6.90;4.60;;;2.20;1.00;2.80;66874.00;;;;5018089;28;20446;-79
2022/01/08 07:07:12;;;;;;;8.00;3.83;;;2.20;1.00;2.80;100052.00;;;;5021016;28;20456;-78
2022/01/08 07:09:40;;;;;;;6.23;4.20;;;2.20;1.00;2.80;100058.00;;;;5022733;28;20477;-79
2022/01/08 07:12:09;;;;;;;7.43;4.40;;;2.30;1.00;2.90;100070.00;;;;5048524;28;20450;-79
2022/01/08 07:14:37;;;;;;;8.10;5.00;;;2.30;1.00;2.90;100055.00;;;;5020135;28;20473;-79
2022/01/08 07:17:06;;;;;;;6.00;3.90;;;2.60;1.00;2.90;100068.00;;;;5021131;28;20584;-78
2022/01/08 07:19:36;;;;;;;8.40;4.80;;;2.30;1.00;2.90;100065.00;;;;5022539;28;20481;-78
2022/01/08 07:22:04;;;;;;;6.70;5.33;;;2.30;1.00;2.90;66895.00;;;;5021680;28;20446;-79
2022/01/08 07:24:33;;;;;;;8.20;6.17;;;2.30;1.00;217.30;157931.00;;;;5024619;28;20806;-78
2022/01/08 07:27:01;;;;;;;12.13;7.00;;;2.30;1.00;2.90;66893.00;;;;5021761;28;20457;-78
2022/01/08 07:29:29;;;;;;;14.13;7.43;;;2.30;1.00;2.90;66901.00;;;;5022408;28;20473;-78
2022/01/08 07:31:57;;;;;;;9.93;7.20;;;2.40;1.00;217.30;157918.00;;;;5026401;28;20816;-78
2022/01/08 07:34:26;;;;;;;12.50;7.50;;;2.40;1.00;3.00;100076.00;;;;5021502;28;20476;-79
2022/01/08 07:36:55;;;;;;;11.03;7.40;;;2.40;1.00;3.10;100077.00;;;;5028565;28;20462;-79
2022/01/08 07:39:23;;;;;;;11.80;7.70;;;2.50;1.00;3.20;66961.00;;;;5025053;28;20460;-79
2022/01/08 07:41:52;;;;;;;11.70;6.70;;;2.60;1.00;217.30;158096.00;;;;5026331;28;20477;-78
2022/01/08 07:44:22;;;;;;;10.20;7.27;;;2.80;1.00;3.40;100080.00;;;;5023081;28;20554;-79
2022/01/08 07:46:51;;;;;;;10.20;7.83;;;2.80;1.00;217.30;158144.00;;;;5020366;28;20463;-79
2022/01/08 07:49:19;;;;;;;9.70;7.77;;;2.80;1.00;3.50;100108.00;;;;5020939;28;20982;-79
2022/01/08 07:51:48;;;;;;;13.57;7.90;;;2.90;1.00;3.60;100098.00;;;;5022698;28;20484;-79
2022/01/08 07:54:18;;;;;;;9.77;7.70;;;3.00;1.00;3.60;100093.00;;;;5021493;28;20477;-78
2022/01/08 07:56:47;;;;;;;10.93;7.50;;;2.90;1.00;3.60;100100.00;;;;5021662;28;20459;-78
2022/01/08 07:59:15;;;;;;;11.50;9.27;;;3.00;1.00;3.50;67038.00;;;;5019741;28;20459;-78
2022/01/08 08:01:44;;;;;;;12.70;9.50;;;2.90;1.00;3.60;100118.00;;;;5019209;28;21355;-79
2022/01/08 08:04:12;;;;;;;12.07;9.53;;;3.00;1.00;3.60;100124.00;;;;5020464;28;20456;-79
2022/01/08 08:06:45;;;;;;;13.00;10.13;;;3.00;1.00;3.70;67071.00;;;;5020951;28;20460;-79
2022/01/08 08:09:13;;;;;;;12.67;10.83;;;3.10;1.00;217.30;158292.00;;;;5021803;28;20501;-80
2022/01/08 08:11:43;;;;;;;16.77;11.47;;;3.10;1.00;3.90;100134.00;;;;5020632;28;20822;-80
2022/01/08 08:14:12;;;;;;;17.70;12.10;;;3.30;1.00;4.10;100135.00;;;;5022453;28;20855;-79
2022/01/08 08:16:41;;;;;;;21.53;14.50;;;3.40;1.00;4.10;100152.00;;;;5021728;28;20457;-79
2022/01/08 08:19:09;;;;;;;18.50;13.37;;;3.50;1.00;4.10;100128.00;;;;5028109;28;20472;-80
2022/01/08 08:21:37;;;;;;;15.73;12.97;;;3.50;1.00;4.10;100141.00;;;;5030099;28;20458;-79
2022/01/08 08:24:06;;;;;;;17.53;13.73;;;3.60;1.00;4.20;67183.00;;;;5026418;28;20456;-79
2022/01/08 08:26:35;;;;;;;22.30;14.13;;;3.60;1.00;4.20;67188.00;;;;5023536;28;20457;-80
2022/01/08 08:29:05;;;;;;;24.27;15.13;;;3.60;1.00;217.30;158489.00;;;;5023094;28;21020;-78
2022/01/08 08:31:33;;;;;;;20.63;15.23;;;3.60;1.00;4.20;67191.00;;;;5024025;28;20448;-79
2022/01/08 08:34:01;;;;;;;20.20;13.70;;;3.70;1.00;217.30;158530.00;;;;5021870;28;20827;-79
2022/01/08 08:36:30;;;;;;;17.97;14.03;;;3.70;1.00;4.40;67234.00;;;;5033333;28;20449;-79
2022/01/08 08:38:58;;;;;;;18.40;13.57;;;3.80;1.00;4.50;100158.00;;;;5021006;28;20449;-80
2022/01/08 08:41:26;;;;;;;16.20;13.57;;;3.90;1.00;4.60;67264.00;;;;5021049;28;20478;-80
2022/01/08 08:43:55;;;;;;;16.77;14.00;;;4.00;1.00;4.60;67275.00;;;;5021113;28;20500;-80
2022/01/08 08:46:25;;;;;;;19.27;14.97;;;4.00;1.00;4.70;67302.00;;;;5036295;28;20461;-80
2022/01/08 08:48:53;;;;;;;19.03;14.17;;;4.30;1.00;4.80;67330.00;;;;5022887;28;20448;-81
2022/01/08 08:51:22;;;;;;;16.10;13.40;;;4.20;1.00;5.00;67373.00;;;;5022197;28;20477;-80
2022/01/08 08:53:50;;;;;;;16.33;13.47;;;4.30;1.00;5.20;67395.00;;;;5023395;28;20479;-80
2022/01/08 08:56:18;;;;;;;17.87;13.87;;;4.40;1.00;5.10;100149.00;;;;5025481;28;20496;-81
2022/01/08 08:58:46;;;;;;;18.30;14.60;;;4.50;1.00;5.00;100155.00;;;;5026377;28;20457;-79
2022/01/08 09:01:14;;;;;;;18.40;14.67;;;4.50;1.00;5.00;100160.00;;;;5033106;28;20481;-80
2022/01/08 09:03:44;;;;;;;18.50;12.63;;;4.40;1.00;217.30;158774.00;;;;5036688;28;20481;-81
2022/01/08 09:06:12;;;;;;;18.20;12.97;;;4.30;1.00;4.90;67335.00;;;;5030042;28;21429;-80
2022/01/08 09:08:41;;;;;;;14.30;12.30;;;4.30;1.00;4.90;67347.00;;;;5027931;28;20454;-80
2022/01/08 09:11:09;;;;;;;15.80;12.47;;;4.30;1.00;5.10;67373.00;;;;5030671;28;20480;-79
2022/01/08 09:13:37;;;;;;;16.83;11.87;;;4.60;1.00;5.10;67390.00;;;;5030490;28;20486;-79
2022/01/08 09:16:06;;;;;;;16.23;11.80;;;4.50;1.00;5.30;67414.00;;;;5029936;28;20486;-79
2022/01/08 09:18:34;;;;;;;15.53;11.87;;;4.60;1.00;5.30;100171.00;;;;5035026;28;20466;-81
2022/01/08 09:21:04;;;;;;;16.23;12.60;;;4.70;1.00;5.20;100180.00;;;;5042154;28;20479;-79
2022/01/08 09:23:33;;;;;;;16.50;12.87;;;4.90;1.00;5.20;100187.00;;;;5044754;28;20475;-81
2022/01/08 09:26:02;;;;;;;16.10;12.03;;;4.60;1.00;5.00;100176.00;;;;5037730;28;20471;-81
2022/01/08 09:28:31;;;;;;;25.60;12.20;;;4.50;1.00;4.80;67333.00;;;;5038414;28;20468;-81
2022/01/08 09:31:01;;;;;;;19.97;12.50;;;4.30;1.00;4.80;100188.00;;;;5043804;28;20480;-81
2022/01/08 09:33:30;;;;;;;20.57;12.67;;;4.20;1.00;4.90;67330.00;;;;5042015;28;20460;-80
2022/01/08 09:35:58;;;;;;;20.50;13.20;;;4.20;1.00;4.80;67333.00;;;;5047752;28;20548;-79
2022/01/08 09:38:30;;;;;;;17.27;13.10;;;4.20;1.00;4.80;67314.00;;;;5043382;28;20477;-80
2022/01/08 09:40:59;;;;;;;22.80;15.73;;;4.20;1.00;4.80;67314.00;;;;5055325;28;20469;-80
2022/01/08 09:43:28;;;;;;;14.00;11.37;;;4.20;1.00;4.70;67293.00;;;;5044075;28;20540;-80
2022/01/08 09:45:57;;;;;;;16.10;12.13;;;4.10;1.00;4.70;67288.00;;;;5033110;28;20457;-80
2022/01/08 09:48:25;;;;;;;20.27;17.07;;;4.10;1.00;4.70;67292.00;;;;5036235;28;20457;-81
2022/01/08 09:51:09;;;;;;;17.10;13.30;;;4.10;1.00;4.70;67292.00;;;;5030125;28;20470;-82
2022/01/08 09:53:39;;;;;;;16.20;12.17;;;4.10;1.00;217.30;158618.00;;;;5035958;28;20532;-80
2022/01/08 09:56:08;;;;;;;21.73;16.77;;;4.00;1.00;4.70;67293.00;;;;5045379;28;20464;-82
2022/01/08 09:58:37;;;;;;;21.30;18.13;;;4.10;1.00;4.70;67288.00;;;;5045557;28;20518;-80
2022/01/08 10:01:24;;;;;;;15.13;8.97;;;4.00;1.00;4.80;67319.00;;;;5042495;28;20487;-81
2022/01/08 10:03:54;;;;;;;15.90;9.20;;;4.10;1.00;4.90;67336.00;;;;5046220;28;20457;-80
2022/01/08 10:06:24;;;;;;;9.20;7.47;;;4.20;1.00;4.90;67347.00;;;;5032607;28;20544;-80
2022/01/08 10:08:54;;;;;;;9.83;7.20;;;4.30;1.00;217.30;158774.00;;;;5031859;28;20468;-80
2022/01/08 10:11:24;;;;;;;13.10;8.27;;;4.30;1.00;4.90;100188.00;;;;5031127;28;20485;-80
2022/01/08 10:14:05;;;;;;;9.50;6.73;;;4.30;1.00;5.00;67352.00;;;;5045006;28;20450;-79
2022/01/08 10:19:24;;;;;;;9.03;6.33;;;4.40;1.00;5.20;100203.00;;;;5028325;28;20473;-79
2022/01/08 10:21:55;;;;;;;12.77;7.00;;;4.60;1.00;5.30;100185.00;;;;5027686;28;20452;-80
2022/01/08 10:24:27;;;;;;;13.53;6.97;;;4.70;1.00;5.40;100189.00;;;;5027162;28;20453;-80
2022/01/08 10:27:02;;;;;;;8.57;6.20;;;4.80;1.00;5.30;67436.00;;;;5025916;28;20480;-81
2022/01/08 10:29:31;;;;;;;9.20;5.77;;;4.80;1.00;5.30;100184.00;;;;5030173;28;20508;-80
2022/01/08 10:31:59;;;;;;;10.03;5.27;;;4.70;1.00;5.30;67441.00;;;;5026153;28;20469;-81
2022/01/08 10:34:30;;;;;;;10.27;5.23;;;4.70;1.00;5.40;100183.00;;;;5029023;28;20543;-80
2022/01/08 10:37:02;;;;;;;8.40;4.73;;;4.80;1.00;5.60;100177.00;;;;5039395;28;20473;-81
2022/01/08 10:39:34;;;;;;;16.33;6.40;;;4.90;1.00;5.80;100187.00;;;;5028052;28;20480;-80
2022/01/08 10:42:10;;;;;;;12.73;6.00;;;5.10;1.00;6.00;100174.00;;;;5030000;28;20457;-79
2022/01/08 10:44:39;;;;;;;10.60;6.00;;;5.40;1.00;5.90;67566.00;;;;5028378;28;20486;-80
2022/01/08 10:47:13;;;;;;;6.37;5.17;;;5.30;1.00;5.70;100193.00;;;;5026629;28;20492;-80
2022/01/08 10:49:44;;;;;;;8.27;5.73;;;5.20;1.00;5.60;67492.00;;;;5024770;28;20481;-80
2022/01/08 10:52:15;;;;;;;9.30;5.80;;;5.00;1.00;5.50;67487.00;;;;5028018;28;20535;-80
2022/01/08 10:54:55;;;;;;;8.00;6.10;;;5.00;1.00;5.70;67520.00;;;;5030821;28;20457;-80
2022/01/08 10:57:32;;;;;;;6.33;5.30;;;5.20;1.00;5.90;67560.00;;;;5024868;28;20475;-80
2022/01/08 11:00:01;;;;;;;12.07;5.40;;;5.30;1.00;5.60;67500.00;;;;5026936;28;20490;-79
2022/01/08 11:02:31;;;;;;;9.50;5.80;;;5.10;1.00;5.60;67504.00;;;;5027560;28;20465;-79
2022/01/08 11:05:04;;;;;;;12.13;5.47;;;5.10;1.00;5.50;100171.00;;;;5030211;28;20458;-80
2022/01/08 11:07:33;;;;;;;7.90;5.20;;;5.00;1.00;5.50;100148.00;;;;5034106;28;20567;-80
2022/01/08 11:10:07;;;;;;;11.80;4.87;;;5.00;1.00;5.80;100146.00;;;;5030684;28;20485;-80
2022/01/08 11:12:41;;;;;;;11.67;7.40;;;5.20;1.00;217.30;159220.00;;;;5024906;28;20571;-80
2022/01/08 11:15:48;;;;;;;11.83;5.63;;;5.50;1.00;5.90;100151.00;;;;5030484;28;20453;-80
2022/01/08 11:18:17;;;;;;;16.20;14.57;;;5.40;1.00;6.00;67582.00;;;;5031204;28;20464;-81
2022/01/08 11:20:57;;;;;;;11.63;8.33;;;5.30;1.00;6.30;100135.00;;;;5033051;28;20476;-79
2022/01/08 11:23:29;;;;;;;7.33;5.50;;;5.80;1.00;217.30;159278.00;;;;5029837;28;20466;-79
2022/01/08 11:25:59;;;;;;;10.40;7.40;;;5.60;1.00;6.30;67663.00;;;;5030736;28;20983;-81
2022/01/08 11:28:34;;;;;;;10.90;5.60;;;5.90;1.00;6.50;67702.00;;;;5023943;28;20893;-81
2022/01/08 11:31:04;;;;;;;10.00;5.30;;;6.00;1.00;6.50;67698.00;;;;5023594;28;20587;-81
2022/01/08 11:33:36;;;;;;;9.00;6.10;;;6.00;1.00;6.40;100133.00;;;;5022711;28;20524;-81
2022/01/08 11:36:06;;;;;;;12.53;6.53;;;6.00;1.00;6.40;67668.00;;;;5022241;28;20485;-81